Terminal Aerodrome Forecast
Issued by NWS Wakefield, VA

Home | Current Version | Previous Version | Text Only | Print | Product List | Glossary On
Versions: 1 2 3 4 5 6 7 8 9 10 11 12 13 14
000
FTUS41 KAKQ 021748
TAFECG
TAF
KECG 021748Z 0218/0318 22011G17KT P6SM SCT060 BKN100
     FM022100 23010KT P6SM BKN050
     FM030000 22008KT 5SM SHRA VCTS SCT025 OVC040CB
     FM030800 20005KT 3SM -SHRA OVC015=

USA.gov is the U.S. government's official web portal to all federal, state and local government web resources and services.